Weather reports worldwide

Advertisment
Puerto Leitariegos, Spain (8052): temperature & dewpoint: 14.06.2019 06:00:00 - 20.06.2019 06:00:00 (CEST)Puerto Leitariegos, Spain (8052): wind speed & gusts: 14.06.2019 06:00:00 - 20.06.2019 06:00:00 (CEST)Puerto Leitariegos, Spain (8052): wind direction: 14.06.2019 06:00:00 - 20.06.2019 06:00:00 (CEST)Puerto Leitariegos, Spain (8052): visibility: 14.06.2019 06:00:00 - 20.06.2019 06:00:00 (CEST)Puerto Leitariegos, Spain (8052): sunshine duration: 14.06.2019 06:00:00 - 20.06.2019 06:00:00 (CEST)Puerto Leitariegos, Spain (8052): precipitation: 14.06.2019 06:00:00 - 20.06.2019 06:00:00 (CEST)
Date & Time tt [°C] td [°C] ff [km/h] ff [kn] fx [km/h] fx [kn] dd vv [km] sd [min] rr [mm]
20.06.2019 06:00:00 - - - - - - - - - -
20.06.2019 05:00:00 7,8 7,0 3 1 14 8 ESE 1,3 0 0,0
20.06.2019 04:00:00 7,4 6,7 11 6 16 9 N - 0 0,0
20.06.2019 03:00:00 - - - - - - - - - -
20.06.2019 02:00:00 7,8 7,0 10 6 16 9 NNW 20 0 -
20.06.2019 01:00:00 8,6 7,8 10 5 15 8 NNW - 0 0,0
20.06.2019 00:00:00 - - - - - - - - - -
19.06.2019 23:00:00 9,2 8,1 5 3 12 6 NNW 0,2 0 0,0
19.06.2019 22:00:00 - - - - - - - - - -
19.06.2019 21:00:00 10,1 8,0 12 6 20 11 NW 20 0 0,0
19.06.2019 20:00:00 11,1 8,1 13 7 24 13 WNW 20 5 -
19.06.2019 19:00:00 - - - - - - - - - -
19.06.2019 18:00:00 12,6 9,2 14 7 21 11 NW 20 1 0,0
19.06.2019 17:00:00 12,8 9,4 12 6 22 12 NW 20 3 0,0
19.06.2019 16:00:00 - - - - - - - - - -
19.06.2019 15:00:00 - - - - - - - - - -
19.06.2019 14:00:00 10,8 8,3 14 7 36 19 SE 20 0 -
19.06.2019 13:00:00 11,6 7,7 15 8 35 19 SSE 20 8 0,0
19.06.2019 12:00:00 - - - - - - - - - -
19.06.2019 11:00:00 - - - - - - - - - -
19.06.2019 10:00:00 - - - - - - - - - -
19.06.2019 09:00:00 - - - - - - - - - -
19.06.2019 08:00:00 - - - - - - - - - -
19.06.2019 07:00:00 - - - - - - - - - -
19.06.2019 06:00:00 - - - - - - - - - -
19.06.2019 05:00:00 - - - - - - - - - -
19.06.2019 04:00:00 - - - - - - - - - -
19.06.2019 03:00:00 - - - - - - - - - -
19.06.2019 02:00:00 - - - - - - - - - -
19.06.2019 01:00:00 - - - - - - - - - -
19.06.2019 00:00:00 - - - - - - - - - -
18.06.2019 23:00:00 - - - - - - - - - -
18.06.2019 22:00:00 - - - - - - - - - -
18.06.2019 21:00:00 - - - - - - - - - -
18.06.2019 20:00:00 - - - - - - - - - -
18.06.2019 19:00:00 - - - - - - - - - -
18.06.2019 18:00:00 11,2 8,9 16 9 35 19 SE 7 4 0,6
18.06.2019 17:00:00 - - - - - - - - - -
18.06.2019 16:00:00 11,1 8,1 22 12 47 26 SE 19 0 0,0
18.06.2019 15:00:00 12,2 8,3 22 12 42 23 SE 20 0 0,0
18.06.2019 14:00:00 - - - - - - - - - -
18.06.2019 13:00:00 12,2 7,3 19 11 33 18 SSE 20 12 0,2
18.06.2019 12:00:00 12,9 6,5 13 7 38 21 S 13 11 0,0
18.06.2019 11:00:00 14,4 2,9 16 9 39 21 SE 20 43 0,0
18.06.2019 10:00:00 13,6 0,0 14 7 36 19 SE 20 51 0,0
18.06.2019 09:00:00 14,1 1,1 18 10 32 17 SE 20 53 0,0
18.06.2019 08:00:00 8,9 1,3 9 5 16 9 SE 20 0 -
18.06.2019 07:00:00 - - - - - - - - - -
18.06.2019 06:00:00 8,7 0,9 4 2 10 6 SSE 20 0 0,0
18.06.2019 05:00:00 - - - - - - - - - -
18.06.2019 04:00:00 9,2 1,1 4 2 12 6 SSE 20 0 0,0
18.06.2019 03:00:00 - - - - - - - - - -
18.06.2019 02:00:00 9,9 0,9 14 8 22 12 SSE 20 0 -
18.06.2019 01:00:00 - - - - - - - - - -
18.06.2019 00:00:00 12,1 0,0 8 4 22 12 S 20 0 0,0
17.06.2019 23:00:00 - - - - - - - - - -
17.06.2019 22:00:00 13,4 -2,2 15 8 37 20 SE 20 0 0,0
17.06.2019 21:00:00 14,3 -1,4 13 7 30 16 SE 20 9 0,0
17.06.2019 20:00:00 15,9 -1,7 7 4 29 16 S 20 7 -
17.06.2019 19:00:00 16,5 -2,5 12 6 29 16 SE 20 9 0,0
17.06.2019 18:00:00 - - - - - - - - - -
17.06.2019 17:00:00 17,2 1,3 22 12 44 24 SE 20 6 0,0
17.06.2019 16:00:00 18,3 1,7 19 10 38 21 SE 20 0 0,0
17.06.2019 15:00:00 18,8 3,0 19 10 42 23 SE 20 43 0,0
17.06.2019 14:00:00 19,1 4,1 27 14 41 22 SE 20 60 -
17.06.2019 13:00:00 18,6 3,2 18 10 45 24 SE 20 60 0,0
17.06.2019 12:00:00 17,9 3,0 25 13 40 22 SE 20 60 0,0
17.06.2019 11:00:00 16,4 6,2 20 11 31 17 SE 19 60 0,0
17.06.2019 10:00:00 14,7 8,0 16 8 24 13 SSE 20 60 0,0
17.06.2019 09:00:00 - - - - - - - - - -
17.06.2019 08:00:00 7,9 5,1 8 4 14 8 SE 20 0 -
17.06.2019 07:00:00 7,8 4,6 6 3 9 5 S 20 0 0,0
17.06.2019 06:00:00 9,3 5,0 4 2 7 4 SSE 20 0 0,0
17.06.2019 05:00:00 - - - - - - - - - -
17.06.2019 04:00:00 8,6 7,3 7 4 9 5 SE 14 0 0,0
17.06.2019 03:00:00 8,9 7,0 4 2 10 5 SSE 20 0 0,0
17.06.2019 02:00:00 - - - - - - - - - -
17.06.2019 01:00:00 9,0 7,7 6 3 10 5 SSE 10 0 0,0
17.06.2019 00:00:00 - - - - - - - - - -
16.06.2019 23:00:00 10,0 8,9 8 5 14 8 NNW - 0 0,0
16.06.2019 22:00:00 11,0 9,9 11 6 20 11 NW 2,8 0 0,0
16.06.2019 21:00:00 - - - - - - - - - -
16.06.2019 20:00:00 12,8 10,3 16 9 32 18 NW 17 0 -
16.06.2019 19:00:00 - - - - - - - - - -
16.06.2019 18:00:00 15,8 9,7 17 9 29 16 NW 20 53 0,0
16.06.2019 17:00:00 17,1 10,3 20 11 29 16 NW 19 56 0,0
16.06.2019 16:00:00 18,6 8,0 8 5 28 15 N 20 60 0,0
16.06.2019 15:00:00 17,9 4,8 8 4 30 16 W 20 60 0,0
16.06.2019 14:00:00 16,9 4,3 12 6 36 19 SE 20 60 -
16.06.2019 13:00:00 16,2 5,1 11 6 33 18 ESE 20 60 0,0
16.06.2019 12:00:00 15,2 5,1 11 6 24 13 ESE 20 60 0,0
16.06.2019 11:00:00 13,5 4,1 13 7 20 11 ESE 20 60 0,0
16.06.2019 10:00:00 - - - - - - - - - -
16.06.2019 09:00:00 8,8 6,2 8 5 12 7 SE 20 53 0,0
16.06.2019 08:00:00 - - - - - - - - - -
16.06.2019 07:00:00 5,1 3,8 14 8 20 11 S 18 0 0,0
16.06.2019 06:00:00 - - - - - - - - - -
16.06.2019 05:00:00 5,2 4,1 13 7 18 10 S 20 0 0,0
16.06.2019 04:00:00 5,4 3,9 6 4 11 6 SSE 20 0 0,0
16.06.2019 03:00:00 5,3 4,1 7 4 10 6 SSE 17 0 0,0
16.06.2019 02:00:00 5,4 4,5 6 3 9 5 SSE 16 0 -
16.06.2019 01:00:00 6,1 5,3 3 2 12 7 NW 0,1 0 0,0
16.06.2019 00:00:00 - - - - - - - - - -
15.06.2019 23:00:00 7,2 6,4 10 5 19 10 NW 0,7 0 0,0
15.06.2019 22:00:00 7,5 6,5 16 8 25 13 NW 0,7 0 0,0
15.06.2019 21:00:00 - - - - - - - - - -
15.06.2019 20:00:00 9,0 6,2 18 10 33 18 NW 20 27 -
15.06.2019 19:00:00 - - - - - - - - - -
15.06.2019 18:00:00 12,2 6,4 18 10 31 17 NW 20 39 0,0
15.06.2019 17:00:00 13,6 2,5 16 8 26 14 N 20 60 0,0
15.06.2019 16:00:00 12,9 3,2 7 4 27 15 NNE 20 58 0,0
15.06.2019 15:00:00 11,6 4,6 9 5 20 11 E 20 43 0,0
15.06.2019 14:00:00 11,1 4,1 12 6 23 12 SE 20 50 -
15.06.2019 13:00:00 - - - - - - - - - -
15.06.2019 12:00:00 8,0 4,5 9 5 18 10 SE 20 23 0,0
15.06.2019 11:00:00 6,0 3,8 13 7 21 11 SSE 20 5 0,0
15.06.2019 10:00:00 - - - - - - - - - -
15.06.2019 09:00:00 4,7 2,9 9 5 13 7 SSE 20 0 0,0
15.06.2019 08:00:00 3,7 2,1 4 2 11 6 S 20 0 -
15.06.2019 07:00:00 3,3 1,3 3 2 21 11 WNW 20 0 0,0
15.06.2019 06:00:00 3,7 2,1 6 3 11 6 N 20 0 0,0
15.06.2019 05:00:00 - - - - - - - - - -
15.06.2019 04:00:00 3,2 1,5 11 6 21 12 NW 20 0 0,0
15.06.2019 03:00:00 - - - - - - - - - -
15.06.2019 02:00:00 4,5 3,8 10 5 18 10 NNW 0,5 0 -
15.06.2019 01:00:00 4,7 3,9 10 5 22 12 NNW 2,2 0 1,2
15.06.2019 00:00:00 4,8 4,1 16 9 32 18 NW 1,6 0 0,0
14.06.2019 23:00:00 5,4 4,5 14 8 20 11 NNW 0,2 0 0,0
14.06.2019 22:00:00 - - - - - - - - - -
14.06.2019 21:00:00 6,4 5,4 20 11 33 18 NW - 0 0,0
14.06.2019 20:00:00 7,1 5,3 22 12 29 16 NW 13 0 -
14.06.2019 19:00:00 7,3 5,5 22 12 35 19 NW 13 0 0,0
14.06.2019 18:00:00 - - - - - - - - - -
14.06.2019 17:00:00 9,2 5,6 20 11 31 17 WNW 20 31 0,0
14.06.2019 16:00:00 9,4 5,8 18 10 29 16 NW 20 14 0,0
14.06.2019 15:00:00 10,4 7,7 20 11 32 17 NW 20 34 0,0
14.06.2019 14:00:00 10,3 7,1 16 9 26 14 NW 19 39 -
14.06.2019 13:00:00 - - - - - - - - - -
14.06.2019 12:00:00 9,7 5,5 12 6 21 11 NW 20 55 0,0
14.06.2019 11:00:00 - - - - - - - - - -
14.06.2019 10:00:00 6,7 3,8 4 2 11 6 E 20 44 0,0
14.06.2019 09:00:00 - - - - - - - - - -
14.06.2019 08:00:00 0,9 0,2 6 3 10 5 SE - 0 -
14.06.2019 07:00:00 0,0 -1,0 7 4 11 6 SE 0,8 0 0,0
14.06.2019 06:00:00 - - - - - - - - - -

tt = temperature
td = dewpoint
ff = wind speed
fx = gusts
dd = wind direction
vv = visibility
sd = sunshine duration
rr = precipitation

Next stations